createdAt,value
2023-05-11T00:00:30.907Z,110.93
2023-05-11T00:01:33.999Z,175.65
2023-05-11T00:02:38.816Z,237.02
2023-05-11T00:03:41.075Z,314.23
2023-05-11T00:04:46.290Z,663.10
2023-05-11T00:05:49.379Z,668.38
2023-05-11T00:06:54.278Z,762.90
2023-05-11T00:07:56.337Z,751.85
2023-05-11T00:09:01.004Z,760.13
2023-05-11T00:10:06.757Z,771.63
2023-05-11T00:11:11.792Z,760.28
2023-05-11T00:12:14.421Z,746.88
2023-05-11T00:13:20.417Z,756.92
2023-05-11T00:14:22.533Z,743.72
2023-05-11T00:15:27.459Z,764.25
2023-05-11T00:16:29.893Z,748.45
2023-05-11T00:17:34.647Z,751.38
2023-05-11T00:18:36.802Z,757.63
2023-05-11T00:19:41.534Z,764.70
2023-05-11T00:20:43.582Z,622.53
2023-05-11T00:21:48.208Z,659.33
2023-05-11T00:22:50.280Z,739.67
2023-05-11T00:23:55.113Z,731.53
2023-05-11T00:24:57.102Z,748.40
2023-05-11T00:26:04.375Z,433.73
2023-05-11T00:27:06.643Z,585.08
2023-05-11T00:28:11.358Z,746.40
2023-05-11T00:29:13.417Z,728.55
2023-05-11T00:30:18.646Z,742.97
2023-05-11T00:31:20.870Z,735.58
2023-05-11T00:32:25.695Z,750.20
2023-05-11T00:33:27.751Z,763.47
2023-05-11T00:34:32.849Z,743.97
2023-05-11T00:35:34.869Z,747.67
2023-05-11T00:36:41.256Z,731.50
2023-05-11T00:37:43.516Z,744.92
2023-05-11T00:38:48.179Z,707.33
2023-05-11T00:39:50.244Z,732.10
2023-05-11T00:40:55.565Z,731.63
2023-05-11T00:42:01.005Z,719.83
2023-05-11T00:43:05.623Z,678.47
2023-05-11T00:44:07.721Z,791.45
2023-05-11T00:45:12.811Z,755.40
2023-05-11T00:46:14.902Z,321.77
2023-05-11T00:47:19.725Z,374.63
2023-05-11T00:48:21.884Z,631.72
2023-05-11T00:49:26.965Z,739.10
2023-05-11T00:50:29.258Z,743.00
2023-05-11T00:51:34.963Z,110.30
2023-05-11T00:52:37.241Z,657.42
2023-05-11T00:53:42.050Z,739.08
2023-05-11T00:54:44.461Z,749.80
2023-05-11T00:55:49.204Z,761.50
2023-05-11T00:56:51.224Z,714.95
2023-05-11T00:57:58.462Z,745.13
2023-05-11T00:59:00.899Z,726.80
2023-05-11T01:00:05.810Z,745.22
2023-05-11T01:01:08.284Z,768.55
2023-05-11T01:02:13.297Z,630.92
2023-05-11T01:03:16.037Z,722.40
2023-05-11T01:04:20.925Z,789.72
2023-05-11T01:05:23.037Z,775.70
2023-05-11T01:06:34.798Z,771.42
2023-05-11T01:07:44.307Z,742.53
2023-05-11T01:08:52.340Z,721.22
2023-05-11T01:10:01.043Z,716.00
2023-05-11T01:11:14.004Z,708.10
2023-05-11T01:12:23.827Z,719.88
2023-05-11T01:13:36.596Z,703.55
2023-05-11T01:14:43.981Z,718.22
2023-05-11T01:15:53.432Z,720.60
2023-05-11T01:16:59.644Z,719.00
2023-05-11T01:18:14.431Z,756.88
2023-05-11T01:19:24.800Z,704.88
2023-05-11T01:20:32.875Z,817.85
2023-05-11T01:21:36.073Z,753.58
2023-05-11T01:22:58.628Z,714.10
2023-05-11T01:24:19.637Z,710.05
2023-05-11T01:25:40.616Z,763.17
2023-05-11T01:27:26.924Z,711.38
2023-05-11T01:28:53.251Z,721.13
2023-05-11T01:30:27.630Z,711.65
2023-05-11T01:31:32.339Z,740.90
2023-05-11T01:32:41.422Z,695.78
2023-05-11T01:33:50.203Z,25.80
2023-05-11T01:35:03.156Z,25.13
2023-05-11T01:36:09.326Z,31.52
2023-05-11T01:37:17.047Z,70.25
2023-05-11T01:38:22.732Z,112.35
2023-05-11T01:39:33.355Z,127.72
2023-05-11T01:40:37.616Z,178.02
2023-05-11T01:41:44.934Z,104.45
2023-05-11T01:42:50.318Z,164.18
2023-05-11T01:43:58.621Z,127.57
2023-05-11T01:45:02.223Z,168.18
2023-05-11T01:46:12.100Z,233.98
2023-05-11T01:47:17.576Z,248.70
2023-05-11T01:48:27.043Z,149.10
2023-05-11T01:49:31.346Z,129.63
2023-05-11T01:50:37.426Z,25.38
2023-05-11T01:51:42.365Z,128.63
2023-05-11T01:52:49.798Z,168.48
2023-05-11T01:53:53.550Z,209.93
2023-05-11T01:55:00.370Z,228.95
2023-05-11T01:56:04.109Z,36.55
2023-05-11T01:57:10.053Z,131.70
2023-05-11T01:58:15.269Z,185.60
2023-05-11T01:59:21.362Z,187.52
2023-05-11T02:00:24.223Z,277.17
2023-05-11T02:01:32.696Z,80.70
2023-05-11T02:02:36.999Z,164.32
2023-05-11T02:03:44.366Z,231.35
2023-05-11T02:04:48.053Z,229.48
2023-05-11T02:05:55.225Z,119.78
2023-05-11T02:06:59.338Z,102.22
2023-05-11T02:08:07.397Z,51.20
2023-05-11T02:09:12.461Z,52.25
2023-05-11T02:10:19.506Z,29.20
2023-05-11T02:11:24.200Z,34.28
2023-05-11T02:12:30.534Z,31.45
2023-05-11T02:13:34.371Z,19.80
2023-05-11T02:14:40.720Z,33.20
2023-05-11T02:15:45.295Z,31.48
2023-05-11T02:16:53.615Z,30.90
2023-05-11T02:17:56.859Z,26.98
2023-05-11T02:19:02.969Z,101.00
2023-05-11T02:20:08.338Z,271.15
2023-05-11T02:21:13.844Z,40.78
2023-05-11T02:22:16.885Z,57.33
2023-05-11T02:23:23.995Z,45.67
2023-05-11T02:24:29.233Z,51.55
2023-05-11T02:25:34.495Z,52.40
2023-05-11T02:26:36.667Z,43.15
2023-05-11T02:27:42.048Z,54.40
2023-05-11T02:28:44.252Z,53.17
2023-05-11T02:29:49.415Z,47.25
2023-05-11T02:30:55.813Z,50.55
2023-05-11T02:32:09.484Z,47.58
2023-05-11T02:33:14.952Z,44.50
2023-05-11T02:34:24.651Z,62.25
2023-05-11T02:35:30.156Z,32.20
2023-05-11T02:36:36.932Z,25.88
2023-05-11T02:37:43.769Z,28.17
2023-05-11T02:38:50.518Z,30.10
2023-05-11T02:40:02.897Z,19.63
2023-05-11T02:41:12.171Z,30.88
2023-05-11T02:42:18.710Z,35.75
2023-05-11T02:43:27.357Z,26.67
2023-05-11T02:44:35.746Z,32.90
2023-05-11T02:45:41.870Z,29.90
2023-05-11T02:46:47.178Z,28.40
2023-05-11T02:47:56.961Z,32.17
2023-05-11T02:49:02.847Z,26.45
2023-05-11T02:50:09.899Z,29.95
2023-05-11T02:51:14.474Z,38.42
2023-05-11T02:52:20.537Z,34.42
2023-05-11T02:53:27.889Z,21.90
2023-05-11T02:54:33.994Z,27.20
2023-05-11T02:55:36.066Z,39.72
2023-05-11T02:56:41.414Z,25.40
2023-05-11T02:57:44.123Z,26.70
2023-05-11T02:58:49.234Z,31.30
2023-05-11T02:59:52.050Z,27.30
2023-05-11T03:00:57.285Z,27.40
2023-05-11T03:02:00.889Z,28.30
2023-05-11T03:03:08.714Z,26.23
2023-05-11T03:04:10.957Z,31.27
2023-05-11T03:05:15.747Z,60.95
2023-05-11T03:06:17.850Z,49.80
2023-05-11T03:07:22.541Z,49.20
2023-05-11T03:08:25.031Z,40.85
2023-05-11T03:09:29.792Z,51.25
2023-05-11T03:10:32.369Z,33.10
2023-05-11T03:11:37.241Z,30.98
2023-05-11T03:12:39.458Z,33.90
2023-05-11T03:13:45.340Z,33.28
2023-05-11T03:14:48.235Z,29.85
2023-05-11T03:15:54.316Z,44.65
2023-05-11T03:16:57.431Z,46.45
2023-05-11T03:18:03.692Z,41.70
2023-05-11T03:19:09.630Z,38.28
2023-05-11T03:20:15.220Z,74.70
2023-05-11T03:21:21.527Z,53.65
2023-05-11T03:22:27.284Z,45.42
2023-05-11T03:23:30.899Z,42.67
2023-05-11T03:24:36.442Z,43.17
2023-05-11T03:25:41.304Z,47.72
2023-05-11T03:26:44.305Z,41.50
2023-05-11T03:27:49.519Z,40.72
2023-05-11T03:28:52.773Z,45.50
2023-05-11T03:29:59.777Z,40.92
2023-05-11T03:31:01.941Z,37.63
2023-05-11T03:32:07.113Z,54.03
2023-05-11T03:33:09.844Z,48.72
2023-05-11T03:34:17.213Z,50.40
2023-05-11T03:37:22.077Z,62.67
2023-05-11T03:38:24.619Z,40.15
2023-05-11T03:39:32.768Z,43.80
2023-05-11T03:40:37.441Z,31.83
2023-05-11T03:41:43.400Z,40.47
2023-05-11T03:42:46.724Z,49.20
2023-05-11T03:43:54.151Z,28.88
2023-05-11T03:44:59.880Z,38.58
2023-05-11T03:46:06.830Z,34.38
2023-05-11T03:47:10.630Z,36.53
2023-05-11T03:48:18.641Z,39.28
2023-05-11T03:49:24.641Z,33.65
2023-05-11T03:50:30.908Z,45.15
2023-05-11T03:51:34.676Z,40.13
2023-05-11T03:52:40.333Z,35.05
2023-05-11T03:53:42.618Z,37.22
2023-05-11T03:54:47.407Z,36.05
2023-05-11T03:55:50.840Z,44.63
2023-05-11T03:56:55.566Z,39.88
2023-05-11T03:57:57.909Z,42.53
2023-05-11T03:59:02.746Z,45.17
2023-05-11T04:00:06.716Z,31.25
2023-05-11T04:01:11.893Z,35.80
2023-05-11T04:02:14.224Z,49.92
2023-05-11T04:03:19.113Z,53.63
2023-05-11T04:04:28.964Z,52.53
2023-05-11T04:05:33.695Z,48.22
2023-05-11T04:06:35.873Z,44.38
2023-05-11T04:07:41.932Z,53.88
2023-05-11T04:08:44.357Z,47.28
2023-05-11T04:09:49.066Z,40.10
2023-05-11T04:10:51.126Z,41.67
2023-05-11T04:11:55.941Z,55.17
2023-05-11T04:12:58.191Z,40.53
2023-05-11T04:14:02.851Z,39.08
2023-05-11T04:15:05.648Z,44.20
2023-05-11T04:16:10.972Z,40.30
2023-05-11T04:17:13.044Z,47.03
2023-05-11T04:18:17.757Z,49.65
2023-05-11T04:19:20.207Z,38.30
2023-05-11T04:20:27.740Z,154.02
2023-05-11T04:21:29.849Z,29.38
2023-05-11T04:22:34.537Z,36.28
2023-05-11T04:23:37.369Z,39.33
2023-05-11T04:24:42.253Z,39.17
2023-05-11T04:25:44.349Z,41.17
2023-05-11T04:26:49.053Z,42.38
2023-05-11T04:27:51.138Z,41.13
2023-05-11T04:28:55.893Z,43.15
2023-05-11T04:29:57.944Z,36.83
2023-05-11T04:31:02.735Z,40.53
2023-05-11T04:32:05.367Z,32.53
2023-05-11T04:33:10.101Z,38.72
2023-05-11T04:34:12.166Z,43.83
2023-05-11T04:35:16.777Z,53.47
2023-05-11T04:36:22.472Z,37.65
2023-05-11T04:37:27.117Z,45.17
2023-05-11T04:38:29.244Z,40.85
2023-05-11T04:39:34.438Z,40.58
2023-05-11T04:40:36.693Z,40.95
2023-05-11T04:41:41.343Z,37.10
2023-05-11T04:42:43.403Z,40.22
2023-05-11T04:43:48.041Z,40.35
2023-05-11T04:44:56.345Z,37.30
2023-05-11T04:45:59.404Z,39.30
2023-05-11T04:47:04.095Z,44.70
2023-05-11T04:48:06.935Z,38.40
2023-05-11T04:49:11.634Z,38.50
2023-05-11T04:50:13.827Z,48.05
2023-05-11T04:51:18.764Z,38.55
2023-05-11T04:52:23.470Z,50.80
2023-05-11T04:53:28.116Z,44.50
2023-05-11T04:54:31.345Z,36.83
2023-05-11T04:55:36.041Z,48.38
2023-05-11T04:56:40.818Z,38.60
2023-05-11T04:57:45.488Z,44.30
2023-05-11T04:58:47.596Z,42.63
2023-05-11T04:59:52.289Z,39.25
2023-05-11T05:00:54.406Z,36.60
2023-05-11T05:01:59.202Z,41.35
2023-05-11T05:03:01.262Z,39.05
2023-05-11T05:04:06.389Z,38.15
2023-05-11T05:05:09.577Z,41.88
2023-05-11T05:06:14.252Z,48.15
2023-05-11T05:07:16.294Z,50.65
2023-05-11T05:08:23.545Z,48.05
2023-05-11T05:09:25.694Z,53.40
2023-05-11T05:10:30.413Z,45.65
2023-05-11T05:11:32.458Z,38.50
2023-05-11T05:12:37.115Z,49.58
2023-05-11T05:13:39.171Z,53.70
2023-05-11T05:14:43.828Z,40.63
2023-05-11T05:15:45.869Z,46.05
2023-05-11T05:16:50.572Z,55.35
2023-05-11T05:17:52.773Z,37.83
2023-05-11T05:18:57.562Z,39.30
2023-05-11T05:19:59.674Z,42.58
2023-05-11T05:21:04.342Z,38.05
2023-05-11T05:22:06.467Z,45.35
2023-05-11T05:23:11.124Z,38.80
2023-05-11T05:24:15.781Z,41.63
2023-05-11T05:25:21.739Z,51.65
2023-05-11T05:26:23.801Z,54.03
2023-05-11T05:27:28.782Z,49.00
2023-05-11T05:28:30.848Z,41.22
2023-05-11T05:29:35.558Z,44.50
2023-05-11T05:30:37.664Z,45.22
2023-05-11T05:31:42.415Z,44.95
2023-05-11T05:32:44.583Z,45.70
2023-05-11T05:33:49.268Z,41.92
2023-05-11T05:34:51.400Z,44.45
2023-05-11T05:35:56.096Z,45.17
2023-05-11T05:36:58.148Z,45.38
2023-05-11T05:38:02.925Z,42.42
2023-05-11T05:39:09.072Z,35.08
2023-05-11T05:40:16.910Z,37.13
2023-05-11T05:41:19.452Z,48.85
2023-05-11T05:42:24.103Z,50.20
2023-05-11T05:43:26.150Z,47.78
2023-05-11T05:44:30.781Z,46.55
2023-05-11T05:45:32.813Z,42.42
2023-05-11T05:46:37.563Z,41.47
2023-05-11T05:47:40.181Z,50.08
2023-05-11T05:48:44.854Z,50.03
2023-05-11T05:49:46.959Z,52.40
2023-05-11T05:50:51.614Z,44.28
2023-05-11T05:51:53.707Z,42.10
2023-05-11T05:52:58.360Z,43.88
2023-05-11T05:54:00.563Z,50.95
2023-05-11T05:55:05.212Z,40.78
2023-05-11T05:56:10.366Z,43.60
2023-05-11T05:57:15.764Z,48.55
2023-05-11T05:58:18.026Z,39.45
2023-05-11T05:59:24.469Z,39.53
2023-05-11T06:00:26.499Z,54.10
2023-05-11T06:01:31.557Z,44.13
2023-05-11T06:02:33.677Z,41.08
2023-05-11T06:03:40.341Z,40.60
2023-05-11T06:04:45.289Z,44.13
2023-05-11T06:05:47.461Z,43.33
2023-05-11T06:06:52.211Z,49.95
2023-05-11T06:08:08.402Z,37.20
2023-05-11T06:09:14.262Z,41.67
2023-05-11T06:10:16.567Z,55.60
2023-05-11T06:11:24.230Z,48.63
2023-05-11T06:12:28.944Z,45.10
2023-05-11T06:13:30.997Z,61.60
2023-05-11T06:14:35.678Z,40.45
2023-05-11T06:15:37.980Z,43.13
2023-05-11T06:16:42.754Z,52.28
2023-05-11T06:17:44.994Z,44.88
2023-05-11T06:18:49.842Z,49.92
2023-05-11T06:19:52.511Z,45.97
2023-05-11T06:20:57.482Z,45.17
2023-05-11T06:22:04.276Z,49.95
2023-05-11T06:23:08.202Z,49.10
2023-05-11T06:24:12.875Z,42.30
2023-05-11T06:25:15.201Z,49.58
2023-05-11T06:26:19.867Z,46.35
2023-05-11T06:27:27.215Z,56.30
2023-05-11T06:28:30.224Z,53.10
2023-05-11T06:29:34.866Z,52.05
2023-05-11T06:30:36.885Z,44.35
2023-05-11T06:31:41.696Z,44.33
2023-05-11T06:32:43.856Z,43.58
2023-05-11T06:33:49.269Z,42.67
2023-05-11T06:34:51.292Z,41.45
2023-05-11T06:35:56.009Z,41.92
2023-05-11T06:36:59.409Z,42.90
2023-05-11T06:38:04.020Z,40.80
2023-05-11T06:39:07.062Z,41.92
2023-05-11T06:40:13.691Z,42.05
2023-05-11T06:41:15.750Z,43.30
2023-05-11T06:42:20.435Z,43.97
2023-05-11T06:43:25.386Z,47.72
2023-05-11T06:44:30.222Z,47.65
2023-05-11T06:45:34.974Z,43.88
2023-05-11T06:46:37.058Z,40.15
2023-05-11T06:47:41.854Z,38.10
2023-05-11T06:48:43.997Z,40.33
2023-05-11T06:49:48.779Z,41.35
2023-05-11T06:50:50.850Z,44.17
2023-05-11T06:51:55.647Z,42.85
2023-05-11T06:52:57.759Z,39.60
2023-05-11T06:54:02.593Z,48.08
2023-05-11T06:55:08.092Z,40.20
2023-05-11T06:56:10.676Z,40.55
2023-05-11T06:57:15.333Z,48.28
2023-05-11T06:58:20.712Z,41.35
2023-05-11T06:59:28.155Z,44.13
2023-05-11T07:00:30.201Z,46.60
2023-05-11T07:01:35.023Z,33.15
2023-05-11T07:02:37.152Z,36.95
2023-05-11T07:03:41.851Z,34.83
2023-05-11T07:04:43.925Z,41.05
2023-05-11T07:05:48.580Z,43.95
2023-05-11T07:06:50.681Z,59.22
2023-05-11T07:07:55.348Z,40.90
2023-05-11T07:08:57.481Z,39.05
2023-05-11T07:10:02.142Z,83.45
2023-05-11T07:11:04.246Z,630.42
2023-05-11T07:12:09.089Z,316.83
2023-05-11T07:13:11.310Z,413.88
2023-05-11T07:14:16.004Z,44.55
2023-05-11T07:15:21.009Z,43.83
2023-05-11T07:16:25.981Z,50.38
2023-05-11T07:17:28.866Z,90.22
2023-05-11T07:18:33.611Z,263.95
2023-05-11T07:19:38.278Z,61.67
2023-05-11T07:20:41.162Z,129.88
2023-05-11T07:21:45.863Z,46.17
2023-05-11T07:22:47.987Z,136.65
2023-05-11T07:23:52.779Z,668.00
2023-05-11T07:24:54.834Z,593.45
2023-05-11T07:25:59.488Z,481.33
2023-05-11T07:27:04.108Z,521.20
2023-05-11T07:28:06.195Z,653.15
2023-05-11T07:29:10.868Z,707.92
2023-05-11T07:30:13.427Z,456.77
2023-05-11T07:31:20.894Z,49.28
2023-05-11T07:32:23.072Z,688.95
2023-05-11T07:33:27.921Z,750.83
2023-05-11T07:34:32.685Z,701.35
2023-05-11T07:35:37.387Z,150.80
2023-05-11T07:36:39.471Z,533.67
2023-05-11T07:37:44.267Z,500.98
2023-05-11T07:38:46.626Z,330.17
2023-05-11T07:39:51.296Z,592.53
2023-05-11T07:40:55.962Z,27.98
2023-05-11T07:41:58.029Z,27.63
2023-05-11T07:43:02.727Z,28.52
2023-05-11T07:44:07.765Z,34.05
2023-05-11T07:45:13.327Z,27.88
2023-05-11T07:46:18.102Z,21.27
2023-05-11T07:47:23.738Z,47.05
2023-05-11T07:48:25.860Z,31.50
2023-05-11T07:49:40.026Z,38.53
2023-05-11T07:50:49.692Z,21.63
2023-05-11T07:51:52.770Z,30.00
2023-05-11T07:52:57.603Z,41.30
2023-05-11T07:53:59.664Z,36.70
2023-05-11T07:55:04.314Z,30.08
2023-05-11T07:56:07.056Z,25.63
2023-05-11T07:57:13.951Z,42.38
2023-05-11T07:58:16.144Z,194.35
2023-05-11T07:59:21.133Z,254.68
2023-05-11T08:00:23.563Z,333.00
2023-05-11T08:01:30.826Z,416.92
2023-05-11T08:02:33.062Z,304.50
2023-05-11T08:03:37.828Z,526.80
2023-05-11T08:04:40.853Z,613.60
2023-05-11T08:05:45.645Z,711.05
2023-05-11T08:06:47.831Z,765.72
2023-05-11T08:07:52.562Z,757.90
2023-05-11T08:08:54.632Z,748.85
2023-05-11T08:09:59.401Z,674.08
2023-05-11T08:11:04.508Z,712.42
2023-05-11T08:12:09.425Z,751.08
2023-05-11T08:13:11.560Z,758.35
2023-05-11T08:14:17.393Z,772.10
2023-05-11T08:15:20.018Z,765.50
2023-05-11T08:16:24.943Z,762.60
2023-05-11T08:17:30.314Z,781.00
2023-05-11T08:18:35.060Z,749.22
2023-05-11T08:19:37.302Z,771.03
2023-05-11T08:20:42.480Z,867.50
2023-05-11T08:21:46.475Z,748.55
2023-05-11T08:22:51.160Z,760.03
2023-05-11T08:23:55.838Z,783.28
2023-05-11T08:24:57.944Z,774.47
2023-05-11T08:26:02.963Z,790.90
2023-05-11T08:27:05.247Z,784.10
2023-05-11T08:28:09.898Z,693.97
2023-05-11T08:29:12.642Z,772.45
2023-05-11T08:30:18.007Z,791.08
2023-05-11T08:31:20.121Z,765.20
2023-05-11T08:32:25.031Z,774.88
2023-05-11T08:33:38.088Z,772.53
2023-05-11T08:34:43.476Z,758.28
2023-05-11T08:35:45.586Z,761.25
2023-05-11T08:36:50.555Z,763.03
2023-05-11T08:37:52.692Z,748.83
2023-05-11T08:38:59.245Z,794.97
2023-05-11T08:40:01.496Z,776.15
2023-05-11T08:41:07.885Z,795.78
2023-05-11T08:42:10.504Z,777.35
2023-05-11T08:43:16.837Z,772.40
2023-05-11T08:44:20.683Z,784.15
2023-05-11T08:45:26.044Z,789.35
2023-05-11T08:46:33.842Z,800.90
2023-05-11T08:47:36.121Z,797.55
2023-05-11T08:48:44.008Z,763.20
2023-05-11T08:49:48.840Z,758.67
2023-05-11T08:50:53.846Z,776.03
2023-05-11T08:51:56.537Z,819.97
2023-05-11T08:53:01.178Z,793.00
2023-05-11T08:54:03.886Z,804.67
2023-05-11T08:55:10.139Z,820.30
2023-05-11T08:56:12.535Z,809.58
2023-05-11T08:57:17.679Z,802.15
2023-05-11T08:58:22.666Z,817.55
2023-05-11T08:59:27.776Z,830.65
2023-05-11T09:00:33.946Z,815.17
2023-05-11T09:01:37.444Z,821.35
2023-05-11T09:02:42.781Z,771.40
2023-05-11T09:03:48.290Z,795.05
2023-05-11T09:04:53.838Z,820.50
2023-05-11T09:05:59.065Z,820.92
2023-05-11T09:07:01.256Z,824.00
2023-05-11T09:08:08.856Z,829.95
2023-05-11T09:09:11.063Z,825.75
2023-05-11T09:10:16.261Z,840.08
2023-05-11T09:11:18.759Z,840.78
2023-05-11T09:12:26.428Z,814.83
2023-05-11T09:13:32.252Z,848.45
2023-05-11T09:14:37.021Z,824.97
2023-05-11T09:15:41.697Z,843.03
2023-05-11T09:16:46.439Z,817.95
2023-05-11T09:17:48.550Z,802.30
2023-05-11T09:18:57.109Z,807.03
2023-05-11T09:20:01.045Z,797.38
2023-05-11T09:21:06.088Z,801.05
2023-05-11T09:22:08.246Z,826.90
2023-05-11T09:23:13.287Z,810.58
2023-05-11T09:24:15.495Z,824.08
2023-05-11T09:25:21.084Z,812.30
2023-05-11T09:26:24.582Z,815.80
2023-05-11T09:27:29.279Z,819.45
2023-05-11T09:28:35.900Z,838.80
2023-05-11T09:29:41.097Z,822.60
2023-05-11T09:30:43.488Z,848.55
2023-05-11T09:31:49.700Z,828.78
2023-05-11T09:32:56.794Z,810.70
2023-05-11T09:34:16.076Z,837.58
2023-05-11T09:35:25.752Z,823.85
2023-05-11T09:36:27.823Z,817.80
2023-05-11T09:37:32.599Z,827.47
2023-05-11T09:38:34.753Z,850.47
2023-05-11T09:39:53.437Z,829.92
2023-05-11T09:41:05.078Z,826.92
2023-05-11T09:42:14.496Z,825.85
2023-05-11T09:43:20.787Z,833.30
2023-05-11T09:44:32.146Z,814.30
2023-05-11T09:45:41.836Z,824.70
2023-05-11T09:46:48.832Z,843.90
2023-05-11T09:47:50.951Z,823.95
2023-05-11T09:49:02.931Z,853.90
2023-05-11T09:50:26.440Z,843.97
2023-05-11T09:51:33.602Z,838.50
2023-05-11T09:52:47.223Z,825.78
2023-05-11T09:53:51.990Z,828.22
2023-05-11T09:54:54.043Z,832.85
2023-05-11T09:55:59.252Z,829.10
2023-05-11T09:57:04.782Z,826.70
2023-05-11T09:58:06.799Z,818.60
2023-05-11T09:59:13.292Z,815.25
2023-05-11T10:00:16.633Z,839.35
2023-05-11T10:01:32.689Z,842.97
2023-05-11T10:02:37.493Z,816.25
2023-05-11T10:03:46.954Z,842.38
2023-05-11T10:04:52.312Z,833.63
2023-05-11T10:06:04.507Z,837.63
2023-05-11T10:07:09.237Z,823.65
2023-05-11T10:08:13.961Z,816.58
2023-05-11T10:09:18.733Z,827.65
2023-05-11T10:10:23.502Z,835.08
2023-05-11T10:11:26.436Z,826.80
2023-05-11T10:12:33.686Z,840.42
2023-05-11T10:13:37.274Z,858.58
2023-05-11T10:14:41.990Z,842.47
2023-05-11T10:15:47.148Z,821.30
2023-05-11T10:16:49.345Z,835.40
2023-05-11T10:17:56.841Z,46.95
2023-05-11T10:18:59.544Z,768.28
2023-05-11T10:20:05.762Z,826.33
2023-05-11T10:21:11.295Z,832.47
2023-05-11T10:22:16.260Z,837.03
2023-05-11T10:23:21.609Z,840.45
2023-05-11T10:24:26.713Z,830.78
2023-05-11T10:25:31.496Z,860.75
2023-05-11T10:26:34.321Z,846.30
2023-05-11T10:27:39.974Z,821.55
2023-05-11T10:29:15.528Z,843.53
2023-05-11T10:30:21.364Z,842.88
2023-05-11T10:31:24.993Z,841.90
2023-05-11T10:32:31.497Z,835.70
2023-05-11T10:33:34.793Z,869.33
2023-05-11T10:34:39.995Z,852.88
2023-05-11T10:35:42.685Z,848.28
2023-05-11T10:36:51.169Z,847.30
2023-05-11T10:37:53.543Z,842.42
2023-05-11T10:38:58.204Z,851.17
2023-05-11T10:40:00.587Z,835.03
2023-05-11T10:41:19.532Z,849.45
2023-05-11T10:42:39.190Z,833.35
2023-05-11T10:44:04.593Z,845.72
2023-05-11T10:45:21.710Z,804.38
2023-05-11T10:46:40.811Z,807.15
2023-05-11T10:48:17.435Z,793.90
2023-05-11T10:49:39.010Z,805.97
2023-05-11T10:51:05.639Z,803.58
2023-05-11T10:52:29.449Z,790.20
2023-05-11T10:53:49.005Z,808.25
2023-05-11T10:55:11.927Z,804.13
2023-05-11T10:56:26.581Z,774.08
2023-05-11T10:57:43.276Z,805.20
2023-05-11T10:59:06.747Z,838.00
2023-05-11T11:01:10.206Z,802.67
2023-05-11T11:02:14.300Z,762.03
2023-05-11T11:03:20.155Z,795.38
2023-05-11T11:04:28.149Z,791.92
2023-05-11T11:05:38.379Z,799.88
2023-05-11T11:06:45.426Z,814.35
2023-05-11T11:08:01.314Z,817.10
2023-05-11T11:09:08.248Z,822.58
2023-05-11T11:10:10.678Z,827.30
2023-05-11T11:11:33.594Z,822.28
2023-05-11T11:12:38.373Z,832.72
2023-05-11T11:13:58.757Z,856.80
2023-05-11T11:15:05.408Z,820.88
2023-05-11T11:16:14.521Z,830.10
2023-05-11T11:17:29.215Z,831.72
2023-05-11T11:18:33.788Z,838.30
2023-05-11T11:19:38.953Z,837.42
2023-05-11T11:20:52.484Z,898.58
2023-05-11T11:21:54.754Z,837.10
2023-05-11T11:23:02.464Z,847.33
2023-05-11T11:24:05.259Z,844.88
2023-05-11T11:25:11.013Z,852.42
2023-05-11T11:26:15.813Z,839.80
2023-05-11T11:27:20.673Z,856.47
2023-05-11T11:28:22.844Z,836.60
2023-05-11T11:29:28.378Z,850.17
2023-05-11T11:30:31.040Z,849.70
2023-05-11T11:31:37.296Z,846.78
2023-05-11T11:32:43.523Z,842.88
2023-05-11T11:33:50.208Z,855.08
2023-05-11T11:34:52.676Z,841.88
2023-05-11T11:35:57.599Z,846.97
2023-05-11T11:37:04.174Z,843.60
2023-05-11T11:38:13.114Z,833.60
2023-05-11T11:39:15.258Z,832.33
2023-05-11T11:40:49.463Z,835.15
2023-05-11T11:42:04.245Z,818.85
2023-05-11T11:43:18.188Z,809.25
2023-05-11T11:44:23.241Z,809.13
2023-05-11T11:45:33.741Z,832.08
2023-05-11T11:46:40.587Z,824.90
2023-05-11T11:48:02.864Z,827.38
2023-05-11T11:49:11.626Z,836.45
2023-05-11T11:50:14.520Z,813.00
2023-05-11T11:51:19.252Z,838.20
2023-05-11T11:52:33.870Z,835.20
2023-05-11T11:54:05.239Z,816.65
2023-05-11T11:55:10.644Z,787.97
2023-05-11T11:56:42.261Z,819.50
2023-05-11T11:57:46.861Z,825.83
2023-05-11T11:59:03.211Z,842.28
2023-05-11T12:00:13.169Z,796.25
2023-05-11T12:01:16.980Z,802.70
2023-05-11T12:02:22.652Z,824.45
2023-05-11T12:03:25.944Z,816.33
2023-05-11T12:04:55.076Z,821.47
2023-05-11T12:06:01.928Z,787.20
2023-05-11T12:07:10.886Z,815.15
2023-05-11T12:08:18.627Z,800.83
2023-05-11T12:09:23.715Z,795.78
2023-05-11T12:10:28.478Z,806.88
2023-05-11T12:11:30.637Z,819.88
2023-05-11T12:12:36.333Z,811.45
2023-05-11T12:13:39.733Z,822.15
2023-05-11T12:14:49.362Z,817.60
2023-05-11T12:16:07.578Z,808.25
2023-05-11T12:17:16.639Z,809.17
2023-05-11T12:18:21.994Z,817.03
2023-05-11T12:19:28.482Z,812.47
2023-05-11T12:20:33.171Z,958.10
2023-05-11T12:21:35.279Z,816.90
2023-05-11T12:22:40.115Z,811.28
2023-05-11T12:23:52.977Z,828.88
2023-05-11T12:25:08.224Z,808.08
2023-05-11T12:26:10.336Z,797.40
2023-05-11T12:27:15.235Z,801.03
2023-05-11T12:28:22.755Z,793.97
2023-05-11T12:29:25.260Z,776.90
2023-05-11T12:30:32.019Z,809.72
2023-05-11T12:31:36.096Z,802.85
2023-05-11T12:32:40.814Z,794.00
2023-05-11T12:33:45.959Z,820.17
2023-05-11T12:35:00.506Z,799.53
2023-05-11T12:36:02.653Z,803.50
2023-05-11T12:37:09.578Z,784.70
2023-05-11T12:38:11.977Z,783.92
2023-05-11T12:39:21.085Z,802.40
2023-05-11T12:40:28.565Z,815.83
2023-05-11T12:41:30.782Z,798.58
2023-05-11T12:42:35.538Z,810.55
2023-05-11T12:43:38.120Z,796.60
2023-05-11T12:44:43.708Z,605.22
2023-05-11T12:45:46.199Z,835.92
2023-05-11T12:46:52.222Z,830.05
2023-05-11T12:47:55.595Z,831.75
2023-05-11T12:49:01.435Z,830.10
2023-05-11T12:50:03.791Z,829.17
2023-05-11T12:51:08.523Z,828.10
2023-05-11T12:52:13.393Z,835.92
2023-05-11T12:53:17.807Z,822.22
2023-05-11T12:54:41.263Z,811.03
2023-05-11T12:55:59.900Z,843.50
2023-05-11T12:57:05.707Z,803.13
2023-05-11T12:58:09.148Z,800.50
2023-05-11T12:59:27.223Z,811.70
2023-05-11T13:00:31.958Z,824.63
2023-05-11T13:01:37.195Z,821.42
2023-05-11T13:02:52.208Z,829.38
2023-05-11T13:03:54.694Z,830.65
2023-05-11T13:04:59.356Z,819.28
2023-05-11T13:06:05.805Z,817.63
2023-05-11T13:07:10.977Z,819.45
2023-05-11T13:08:14.886Z,826.60
2023-05-11T13:09:25.200Z,809.67
2023-05-11T13:10:30.843Z,806.53
2023-05-11T13:11:36.151Z,828.50
2023-05-11T13:12:51.933Z,825.83
2023-05-11T13:13:55.598Z,814.22
2023-05-11T13:15:12.991Z,822.05
2023-05-11T13:16:27.533Z,822.42
2023-05-11T13:17:31.491Z,793.58
2023-05-11T13:18:36.494Z,812.78
2023-05-11T13:19:39.685Z,808.60
2023-05-11T13:20:45.199Z,879.63
2023-05-11T13:21:47.229Z,829.13
2023-05-11T13:22:53.093Z,812.90
2023-05-11T13:23:55.588Z,839.67
2023-05-11T13:25:06.658Z,807.45
2023-05-11T13:26:11.448Z,805.17
2023-05-11T13:27:18.751Z,804.70
2023-05-11T13:28:25.534Z,808.33
2023-05-11T13:29:28.001Z,829.55
2023-05-11T13:30:34.906Z,827.72
2023-05-11T13:31:43.150Z,833.75
2023-05-11T13:32:47.904Z,839.78
2023-05-11T13:33:51.603Z,825.45
2023-05-11T13:34:56.343Z,881.33
2023-05-11T13:35:58.425Z,852.90
2023-05-11T13:37:03.134Z,863.35
2023-05-11T13:38:05.474Z,873.63
2023-05-11T13:39:10.864Z,868.60
2023-05-11T13:40:16.396Z,855.35
2023-05-11T13:41:18.469Z,882.65
2023-05-11T13:42:26.931Z,859.10
2023-05-11T13:43:31.625Z,859.78
2023-05-11T13:44:36.401Z,861.47
2023-05-11T13:45:41.063Z,874.22
2023-05-11T13:46:46.104Z,927.20
2023-05-11T13:47:48.458Z,872.55
2023-05-11T13:48:54.943Z,887.65
2023-05-11T13:49:59.893Z,874.88
2023-05-11T13:51:01.982Z,856.33
2023-05-11T13:52:07.446Z,850.58
2023-05-11T13:53:11.152Z,874.72
2023-05-11T13:54:17.624Z,874.97
2023-05-11T13:55:20.142Z,860.90
2023-05-11T13:56:25.010Z,879.55